createdAt,value
2022-12-18T00:00:47.692Z,88.60
2022-12-18T00:04:49.412Z,88.50
2022-12-18T00:08:51.984Z,88.50
2022-12-18T00:12:53.965Z,88.60
2022-12-18T00:16:55.715Z,89.00
2022-12-18T00:21:01.055Z,89.80
2022-12-18T00:25:03.470Z,90.30
2022-12-18T00:29:14.678Z,90.10
2022-12-18T00:33:16.434Z,89.80
2022-12-18T00:37:20.256Z,89.10
2022-12-18T00:41:45.686Z,89.80
2022-12-18T00:45:47.539Z,90.00
2022-12-18T00:49:49.337Z,90.00
2022-12-18T00:53:51.300Z,90.00
2022-12-18T00:57:53.502Z,88.80
2022-12-18T01:01:55.391Z,89.30
2022-12-18T01:05:57.530Z,90.00
2022-12-18T01:09:59.359Z,89.30
2022-12-18T01:14:01.850Z,88.60
2022-12-18T01:18:06.687Z,89.50
2022-12-18T01:22:08.558Z,89.20
2022-12-18T01:26:13.965Z,90.10
2022-12-18T01:30:15.941Z,90.50
2022-12-18T01:34:17.758Z,91.00
2022-12-18T01:38:19.491Z,92.10
2022-12-18T01:42:21.982Z,91.70
2022-12-18T01:46:25.801Z,91.30
2022-12-18T01:50:36.840Z,90.80
2022-12-18T01:54:38.730Z,90.50
2022-12-18T01:59:14.201Z,90.40
2022-12-18T02:03:16.178Z,90.20
2022-12-18T02:07:42.583Z,89.30
2022-12-18T02:12:03.260Z,89.40
2022-12-18T02:16:23.632Z,89.50
2022-12-18T02:20:42.995Z,89.60
2022-12-18T02:25:03.423Z,90.80
2022-12-18T02:29:32.550Z,90.70
2022-12-18T02:33:37.053Z,90.90
2022-12-18T02:37:41.087Z,90.80
2022-12-18T02:41:43.207Z,91.40
2022-12-18T02:45:58.483Z,91.50
2022-12-18T02:50:31.615Z,91.40
2022-12-18T02:54:33.850Z,91.10
2022-12-18T02:59:10.699Z,90.60
2022-12-18T03:03:31.189Z,90.70
2022-12-18T03:07:42.892Z,90.50
2022-12-18T03:12:12.983Z,90.90
2022-12-18T03:16:23.302Z,90.90
2022-12-18T03:20:29.679Z,90.70
2022-12-18T03:24:34.053Z,90.50
2022-12-18T03:28:40.706Z,90.30
2022-12-18T03:32:58.810Z,90.80
2022-12-18T03:37:04.104Z,90.70
2022-12-18T03:41:16.509Z,90.50
2022-12-18T03:45:43.721Z,90.70
2022-12-18T03:50:01.137Z,90.70
2022-12-18T03:54:09.758Z,90.90
2022-12-18T03:58:20.211Z,91.10
2022-12-18T04:02:34.610Z,90.70
2022-12-18T04:06:39.428Z,90.60
2022-12-18T04:10:42.796Z,90.50
2022-12-18T04:14:45.818Z,90.20
2022-12-18T04:18:48.643Z,90.40
2022-12-18T04:22:50.615Z,90.70
2022-12-18T04:26:53.901Z,90.50
2022-12-18T04:31:03.444Z,90.40
2022-12-18T04:35:07.544Z,90.30
2022-12-18T04:39:10.248Z,90.70
2022-12-18T04:43:12.424Z,90.50
2022-12-18T04:47:14.802Z,90.50
2022-12-18T04:51:16.664Z,90.40
2022-12-18T04:55:18.549Z,90.30
2022-12-18T04:59:20.315Z,90.30
2022-12-18T05:03:22.142Z,90.20
2022-12-18T05:07:23.954Z,90.40
2022-12-18T05:11:25.859Z,90.30
2022-12-18T05:15:31.885Z,90.30
2022-12-18T05:19:33.642Z,90.20
2022-12-18T05:23:35.861Z,90.10
2022-12-18T05:27:37.610Z,90.20
2022-12-18T05:31:40.035Z,90.30
2022-12-18T05:35:41.881Z,90.20
2022-12-18T05:39:45.150Z,90.20
2022-12-18T05:43:46.989Z,90.20
2022-12-18T05:47:48.699Z,90.20
2022-12-18T05:51:50.713Z,90.20
2022-12-18T05:55:52.487Z,90.20
2022-12-18T05:59:54.652Z,90.20
2022-12-18T06:03:56.803Z,90.20
2022-12-18T06:07:58.597Z,90.80
2022-12-18T06:12:00.541Z,90.90
2022-12-18T06:16:06.388Z,90.90
2022-12-18T06:20:08.686Z,91.00
2022-12-18T06:24:10.988Z,91.20
2022-12-18T06:28:12.817Z,91.10
2022-12-18T06:32:14.595Z,91.10
2022-12-18T06:36:17.609Z,91.00
2022-12-18T06:40:19.546Z,91.00
2022-12-18T06:44:21.389Z,91.00
2022-12-18T06:48:23.146Z,91.00
2022-12-18T06:52:24.889Z,91.00
2022-12-18T06:56:26.694Z,91.10
2022-12-18T07:00:28.492Z,91.00
2022-12-18T07:04:31.327Z,91.10
2022-12-18T07:08:33.787Z,91.00
2022-12-18T07:12:35.865Z,91.00
2022-12-18T07:16:37.644Z,91.00
2022-12-18T07:20:39.466Z,91.10
2022-12-18T07:24:41.276Z,91.20
2022-12-18T07:28:43.181Z,91.00
2022-12-18T07:32:45.031Z,91.30
2022-12-18T07:36:46.842Z,91.20
2022-12-18T07:40:48.682Z,91.10
2022-12-18T07:44:50.471Z,91.30
2022-12-18T07:48:52.179Z,91.60
2022-12-18T07:52:53.930Z,91.60
2022-12-18T07:56:55.662Z,92.10
2022-12-18T08:01:05.250Z,91.70
2022-12-18T08:05:08.799Z,91.60
2022-12-18T08:09:11.533Z,91.40
2022-12-18T08:13:13.243Z,91.50
2022-12-18T08:17:15.061Z,91.30
2022-12-18T08:21:17.958Z,92.00
2022-12-18T08:25:19.706Z,92.10
2022-12-18T08:29:21.818Z,91.80
2022-12-18T08:33:23.853Z,91.70
2022-12-18T08:37:26.089Z,91.70
2022-12-18T08:41:27.934Z,91.50
2022-12-18T08:45:29.827Z,91.40
2022-12-18T08:49:31.632Z,91.40
2022-12-18T08:53:35.755Z,91.30
2022-12-18T08:57:37.958Z,91.30
2022-12-18T09:01:39.785Z,91.30
2022-12-18T09:05:41.852Z,91.30
2022-12-18T09:09:43.793Z,91.40
2022-12-18T09:13:45.536Z,91.80
2022-12-18T09:17:47.418Z,91.90
2022-12-18T09:21:49.381Z,91.60
2022-12-18T09:25:51.105Z,92.70
2022-12-18T09:29:52.860Z,92.70
2022-12-18T09:33:56.980Z,92.10
2022-12-18T09:37:58.939Z,93.30
2022-12-18T09:42:00.892Z,93.60
2022-12-18T09:46:07.998Z,92.70
2022-12-18T09:50:32.653Z,92.20
2022-12-18T09:54:39.490Z,92.00
2022-12-18T09:58:56.343Z,92.20
2022-12-18T10:03:10.514Z,92.80
2022-12-18T10:07:30.454Z,92.70
2022-12-18T10:11:59.085Z,92.30
2022-12-18T10:16:14.078Z,92.30
2022-12-18T10:20:29.500Z,93.00
2022-12-18T10:24:49.196Z,93.10
2022-12-18T10:28:52.933Z,93.70
2022-12-18T10:32:55.237Z,93.30
2022-12-18T10:36:57.735Z,92.90
2022-12-18T10:40:59.867Z,92.70
2022-12-18T10:45:16.998Z,93.00
2022-12-18T10:49:28.343Z,93.50
2022-12-18T10:53:32.631Z,92.70
2022-12-18T10:57:39.987Z,92.70
2022-12-18T11:02:00.049Z,92.50
2022-12-18T11:06:16.892Z,92.30
2022-12-18T11:10:20.943Z,92.30
2022-12-18T11:14:35.072Z,93.20
2022-12-18T11:18:37.320Z,93.70
2022-12-18T11:22:41.153Z,94.00
2022-12-18T11:26:44.318Z,94.20
2022-12-18T11:30:46.082Z,93.40
2022-12-18T11:34:56.001Z,93.60
2022-12-18T11:39:13.093Z,93.80
2022-12-18T11:43:22.848Z,93.70
2022-12-18T11:47:48.997Z,93.20
2022-12-18T11:52:10.454Z,93.10
2022-12-18T11:56:27.231Z,92.50
2022-12-18T12:00:29.551Z,92.40
2022-12-18T12:04:49.180Z,92.40
2022-12-18T12:09:10.497Z,92.40
2022-12-18T12:13:43.803Z,93.40
2022-12-18T12:18:11.226Z,93.60
2022-12-18T12:22:32.100Z,93.90
2022-12-18T12:26:43.957Z,94.40
2022-12-18T12:31:04.129Z,93.60
2022-12-18T12:35:32.942Z,93.50
2022-12-18T12:39:41.707Z,93.00
2022-12-18T12:43:51.601Z,93.10
2022-12-18T12:47:55.469Z,93.30
2022-12-18T12:52:30.220Z,93.50
2022-12-18T12:57:00.228Z,93.50
2022-12-18T13:01:24.129Z,93.40
2022-12-18T13:05:55.785Z,93.30
2022-12-18T13:10:26.813Z,93.20
2022-12-18T13:14:38.740Z,92.70
2022-12-18T13:18:51.054Z,93.00
2022-12-18T13:22:53.529Z,92.90
2022-12-18T13:26:55.624Z,93.50
2022-12-18T13:30:58.628Z,93.70
2022-12-18T13:35:18.862Z,93.30
2022-12-18T13:39:30.062Z,92.70
2022-12-18T13:43:43.916Z,92.60
2022-12-18T13:47:46.254Z,92.60
2022-12-18T13:51:51.216Z,92.60
2022-12-18T13:55:54.382Z,93.60
2022-12-18T13:59:58.116Z,93.40
2022-12-18T14:04:20.034Z,93.00
2022-12-18T14:08:22.102Z,93.50
2022-12-18T14:12:46.358Z,94.30
2022-12-18T14:16:50.106Z,93.70
2022-12-18T14:20:54.898Z,93.30
2022-12-18T14:25:16.014Z,93.20
2022-12-18T14:29:20.450Z,92.80
2022-12-18T14:33:27.056Z,93.00
2022-12-18T14:37:28.843Z,93.20
2022-12-18T14:41:30.624Z,93.30
2022-12-18T14:45:43.840Z,93.00
2022-12-18T14:49:46.358Z,93.30
2022-12-18T14:54:01.335Z,93.50
2022-12-18T14:58:03.220Z,94.90
2022-12-18T15:02:17.584Z,94.70
2022-12-18T15:06:32.794Z,94.40
2022-12-18T15:10:35.570Z,93.80
2022-12-18T15:14:41.988Z,93.10
2022-12-18T15:18:46.141Z,93.70
2022-12-18T15:22:48.592Z,94.00
2022-12-18T15:26:50.321Z,94.30
2022-12-18T15:31:06.439Z,94.40
2022-12-18T15:35:23.272Z,94.10
2022-12-18T15:39:25.524Z,93.90
2022-12-18T15:43:37.601Z,94.00
2022-12-18T15:47:39.884Z,94.10
2022-12-18T15:51:41.791Z,93.70
2022-12-18T15:56:02.070Z,93.70
2022-12-18T16:00:04.406Z,93.50
2022-12-18T16:04:06.817Z,93.40
2022-12-18T16:08:08.634Z,93.20
2022-12-18T16:12:21.699Z,93.20
2022-12-18T16:16:23.581Z,93.00
2022-12-18T16:20:26.029Z,93.10
2022-12-18T16:24:30.472Z,92.90
2022-12-18T16:28:32.245Z,92.70
2022-12-18T16:32:34.004Z,92.70
2022-12-18T16:36:35.847Z,93.10
2022-12-18T16:40:59.078Z,93.40
2022-12-18T16:45:00.845Z,94.00
2022-12-18T16:49:02.701Z,93.70
2022-12-18T16:53:04.477Z,93.10
2022-12-18T16:57:06.475Z,93.00
2022-12-18T17:01:11.272Z,92.80
2022-12-18T17:05:13.098Z,93.20
2022-12-18T17:09:17.195Z,94.10
2022-12-18T17:13:22.688Z,94.20
2022-12-18T17:17:27.517Z,93.80
2022-12-18T17:21:29.450Z,93.10
2022-12-18T17:25:31.203Z,93.20
2022-12-18T17:29:33.118Z,93.70
2022-12-18T17:33:35.398Z,93.50
2022-12-18T17:37:37.303Z,93.60
2022-12-18T17:41:39.159Z,93.50
2022-12-18T17:45:41.068Z,94.10
2022-12-18T17:49:42.846Z,94.00
2022-12-18T17:53:45.219Z,93.50
2022-12-18T17:57:47.653Z,93.20
2022-12-18T18:01:49.575Z,93.20
2022-12-18T18:05:58.569Z,93.00
2022-12-18T18:10:00.330Z,93.20
2022-12-18T18:14:05.113Z,93.10
2022-12-18T18:18:06.856Z,93.00
2022-12-18T18:22:08.653Z,92.80
2022-12-18T18:26:10.475Z,92.60
2022-12-18T18:30:12.747Z,92.60
2022-12-18T18:34:23.194Z,93.10
2022-12-18T18:38:25.310Z,93.20
2022-12-18T18:42:27.157Z,93.20
2022-12-18T18:46:29.017Z,92.90
2022-12-18T18:50:30.889Z,93.70
2022-12-18T18:54:32.903Z,93.50
2022-12-18T18:58:34.907Z,93.40
2022-12-18T19:02:37.071Z,93.50
2022-12-18T19:06:42.640Z,93.00
2022-12-18T19:10:45.012Z,93.20
2022-12-18T19:14:47.034Z,93.50
2022-12-18T19:18:49.504Z,93.50
2022-12-18T19:22:56.307Z,93.90
2022-12-18T19:26:58.345Z,94.00
2022-12-18T19:31:02.863Z,93.70
2022-12-18T19:35:05.005Z,94.10
2022-12-18T19:39:12.942Z,93.60
2022-12-18T19:43:15.124Z,93.80
2022-12-18T19:47:17.943Z,93.50
2022-12-18T19:51:23.344Z,93.10
2022-12-18T19:55:25.130Z,92.80
2022-12-18T19:59:27.177Z,93.30
2022-12-18T20:03:32.496Z,93.80
2022-12-18T20:07:34.698Z,93.70
2022-12-18T20:11:41.481Z,93.60
2022-12-18T20:15:45.442Z,93.20
2022-12-18T20:19:47.574Z,92.90
2022-12-18T20:23:49.440Z,92.70
2022-12-18T20:27:51.394Z,92.70
2022-12-18T20:31:53.601Z,92.70
2022-12-18T20:36:05.856Z,93.00
2022-12-18T20:40:08.775Z,93.00
2022-12-18T20:44:23.564Z,93.10
2022-12-18T20:48:26.810Z,92.90
2022-12-18T20:52:28.608Z,92.80
2022-12-18T20:56:33.413Z,93.00
2022-12-18T21:00:35.328Z,93.20
2022-12-18T21:04:37.208Z,93.40
2022-12-18T21:08:39.093Z,92.80
2022-12-18T21:13:03.152Z,93.10
2022-12-18T21:17:06.607Z,93.50
2022-12-18T21:21:08.486Z,93.30
2022-12-18T21:25:10.476Z,93.60
2022-12-18T21:29:15.087Z,93.30
2022-12-18T21:33:17.126Z,93.60
2022-12-18T21:37:18.932Z,93.70
2022-12-18T21:41:42.305Z,93.50
2022-12-18T21:45:44.467Z,93.20
2022-12-18T21:49:46.338Z,92.60
2022-12-18T21:53:48.619Z,92.40
2022-12-18T21:57:53.950Z,92.30
2022-12-18T22:01:58.318Z,92.30
2022-12-18T22:06:09.018Z,92.20
2022-12-18T22:10:11.504Z,92.40
2022-12-18T22:14:14.754Z,92.10
2022-12-18T22:18:16.457Z,92.00
2022-12-18T22:22:18.220Z,92.20
2022-12-18T22:26:21.305Z,92.20
2022-12-18T22:30:23.028Z,92.00
2022-12-18T22:34:24.761Z,91.90
2022-12-18T22:38:26.504Z,92.40
2022-12-18T22:42:28.355Z,92.40
2022-12-18T22:46:33.337Z,92.20
2022-12-18T22:50:35.209Z,92.00
2022-12-18T22:54:37.055Z,91.90
2022-12-18T22:58:38.900Z,91.90
2022-12-18T23:02:40.873Z,91.70
2022-12-18T23:06:44.263Z,92.10
2022-12-18T23:10:46.188Z,92.00
2022-12-18T23:14:47.934Z,91.80
2022-12-18T23:18:54.904Z,92.00
2022-12-18T23:22:56.778Z,91.80
2022-12-18T23:26:58.496Z,92.30
2022-12-18T23:31:21.475Z,92.50
2022-12-18T23:35:23.375Z,92.60
2022-12-18T23:39:29.808Z,92.40
2022-12-18T23:43:32.037Z,92.20
2022-12-18T23:47:33.776Z,92.40
2022-12-18T23:51:38.590Z,92.40
2022-12-18T23:55:44.048Z,92.20
2022-12-18T23:59:45.812Z,92.40
